createdAt,value
2018-12-23T00:01:37.391Z,1012.51
2018-12-23T00:06:33.928Z,1012.56
2018-12-23T00:11:29.845Z,1012.71
2018-12-23T00:16:25.681Z,1012.71
2018-12-23T00:21:21.594Z,1012.72
2018-12-23T00:26:17.329Z,1012.67
2018-12-23T00:31:14.127Z,1012.75
2018-12-23T00:36:09.673Z,1012.81
2018-12-23T00:41:06.210Z,1012.85
2018-12-23T00:46:01.652Z,1012.82
2018-12-23T00:50:58.513Z,1012.87
2018-12-23T00:55:54.328Z,1012.84
2018-12-23T01:00:51.063Z,1012.91
2018-12-23T01:05:47.536Z,1012.87
2018-12-23T01:10:44.081Z,1013.01
2018-12-23T01:15:39.424Z,1012.96
2018-12-23T01:20:35.348Z,1012.95
2018-12-23T01:25:31.439Z,1012.96
2018-12-23T01:30:27.563Z,1013.03
2018-12-23T01:35:23.247Z,1013.02
2018-12-23T01:40:18.547Z,1013.11
2018-12-23T01:45:14.336Z,1013.14
2018-12-23T01:50:10.332Z,1013.20
2018-12-23T01:55:05.677Z,1013.19
2018-12-23T02:00:01.586Z,1013.17
2018-12-23T02:04:57.097Z,1013.19
2018-12-23T02:09:53.013Z,1013.32
2018-12-23T02:14:48.861Z,1013.35
2018-12-23T02:19:45.653Z,1013.42
2018-12-23T02:24:42.051Z,1013.23
2018-12-23T02:29:37.674Z,1013.32
2018-12-23T02:34:33.055Z,1013.26
2018-12-23T02:39:29.435Z,1013.35
2018-12-23T02:44:25.619Z,1013.43
2018-12-23T02:49:21.369Z,1013.46
2018-12-23T02:54:17.120Z,1013.44
2018-12-23T02:59:13.309Z,1013.49
2018-12-23T03:04:09.889Z,1013.56
2018-12-23T03:09:05.819Z,1013.50
2018-12-23T03:14:02.551Z,1013.48
2018-12-23T03:18:57.839Z,1013.38
2018-12-23T03:23:53.706Z,1013.27
2018-12-23T03:28:50.409Z,1013.25
2018-12-23T03:33:45.896Z,1013.36
2018-12-23T03:38:42.301Z,1013.30
2018-12-23T03:43:37.221Z,1013.30
2018-12-23T03:48:33.977Z,1013.37
2018-12-23T03:53:29.543Z,1013.42
2018-12-23T03:58:25.121Z,1013.47
2018-12-23T04:03:22.217Z,1013.34
2018-12-23T04:08:17.527Z,1013.28
2018-12-23T04:13:14.192Z,1013.22
2018-12-23T04:18:09.694Z,1013.24
2018-12-23T04:23:06.414Z,1013.08
2018-12-23T04:28:01.761Z,1013.00
2018-12-23T04:32:57.988Z,1013.01
2018-12-23T04:37:53.636Z,1012.99
2018-12-23T04:42:49.455Z,1013.00
2018-12-23T04:47:45.063Z,1013.04
2018-12-23T04:52:40.545Z,1013.01
2018-12-23T04:57:36.570Z,1012.96
2018-12-23T05:02:33.125Z,1012.98
2018-12-23T05:07:29.871Z,1012.81
2018-12-23T05:12:26.095Z,1012.88
2018-12-23T05:17:22.120Z,1012.76
2018-12-23T05:22:17.884Z,1012.81
2018-12-23T05:27:13.915Z,1012.74
2018-12-23T05:32:10.532Z,1012.72
2018-12-23T05:37:06.446Z,1012.84
2018-12-23T05:42:02.294Z,1012.77
2018-12-23T05:46:59.155Z,1012.87
2018-12-23T05:51:54.672Z,1012.86
2018-12-23T05:56:50.736Z,1012.95
2018-12-23T06:01:46.508Z,1012.91
2018-12-23T06:06:43.097Z,1012.95
2018-12-23T06:11:39.994Z,1013.01
2018-12-23T06:16:35.619Z,1012.99
2018-12-23T06:21:31.426Z,1013.15
2018-12-23T06:26:28.108Z,1013.03
2018-12-23T06:31:24.541Z,1013.03
2018-12-23T06:36:19.845Z,1013.02
2018-12-23T06:41:16.528Z,1013.10
2018-12-23T06:46:12.071Z,1013.10
2018-12-23T06:51:08.018Z,1013.14
2018-12-23T06:56:04.830Z,1013.21
2018-12-23T07:01:00.114Z,1013.15
2018-12-23T07:05:55.758Z,1013.22
2018-12-23T07:10:52.509Z,1013.22
2018-12-23T07:15:48.604Z,1013.16
2018-12-23T07:20:44.222Z,1013.13
2018-12-23T07:25:40.767Z,1013.12
2018-12-23T07:30:36.395Z,1013.22
2018-12-23T07:35:32.958Z,1013.12
2018-12-23T07:40:28.775Z,1013.25
2018-12-23T07:45:24.638Z,1013.16
2018-12-23T07:50:20.372Z,1013.20
2018-12-23T07:55:17.498Z,1013.08
2018-12-23T08:00:13.018Z,1013.06
2018-12-23T08:05:09.821Z,1013.08
2018-12-23T08:10:06.102Z,1013.08
2018-12-23T08:15:02.653Z,1013.07
2018-12-23T08:19:57.815Z,1013.03
2018-12-23T08:24:54.527Z,1013.01
2018-12-23T08:29:50.596Z,1012.97
2018-12-23T08:34:46.657Z,1012.99
2018-12-23T08:39:42.303Z,1013.08
2018-12-23T08:44:37.968Z,1012.91
2018-12-23T08:49:34.793Z,1012.93
2018-12-23T08:54:31.447Z,1012.94
2018-12-23T08:59:27.869Z,1012.85
2018-12-23T09:04:23.421Z,1012.79
2018-12-23T09:09:20.054Z,1012.97
2018-12-23T09:14:15.349Z,1012.99
2018-12-23T09:19:11.323Z,1013.05
2018-12-23T09:24:07.101Z,1013.00
2018-12-23T09:29:02.678Z,1012.95
2018-12-23T09:33:58.810Z,1012.97
2018-12-23T09:38:55.427Z,1012.90
2018-12-23T09:43:51.626Z,1012.77
2018-12-23T09:48:47.192Z,1012.76
2018-12-23T09:53:42.810Z,1012.80
2018-12-23T09:58:39.692Z,1012.72
2018-12-23T10:03:35.069Z,1012.69
2018-12-23T10:08:31.021Z,1012.63
2018-12-23T10:13:27.746Z,1012.51
2018-12-23T10:18:24.507Z,1012.60
2018-12-23T10:23:20.752Z,1012.56
2018-12-23T10:28:16.218Z,1012.57
2018-12-23T10:33:12.958Z,1012.47
2018-12-23T10:38:09.135Z,1012.44
2018-12-23T10:43:05.142Z,1012.29
2018-12-23T10:48:00.901Z,1012.22
2018-12-23T10:52:56.641Z,1012.17
2018-12-23T10:57:52.366Z,1012.11
2018-12-23T11:02:49.108Z,1011.95
2018-12-23T11:07:44.433Z,1011.87
2018-12-23T11:12:41.007Z,1011.73
2018-12-23T11:17:37.732Z,1011.68
2018-12-23T11:22:33.494Z,1011.55
2018-12-23T11:27:30.264Z,1011.52
2018-12-23T11:32:26.789Z,1011.52
2018-12-23T11:37:22.544Z,1011.38
2018-12-23T11:42:18.303Z,1011.28
2018-12-23T11:47:14.128Z,1011.12
2018-12-23T11:52:10.015Z,1011.02
2018-12-23T11:57:05.646Z,1010.99
2018-12-23T12:02:01.689Z,1010.86
2018-12-23T12:06:57.449Z,1010.85
2018-12-23T12:11:54.228Z,1010.83
2018-12-23T12:16:50.068Z,1010.73
2018-12-23T12:21:47.204Z,1010.68
2018-12-23T12:26:42.934Z,1010.55
2018-12-23T12:31:38.567Z,1010.53
2018-12-23T12:36:34.104Z,1010.47
2018-12-23T12:41:31.181Z,1010.44
2018-12-23T12:46:27.760Z,1010.28
2018-12-23T12:51:23.291Z,1010.32
2018-12-23T12:56:18.976Z,1010.32
2018-12-23T13:01:15.641Z,1010.36
2018-12-23T13:06:13.199Z,1010.22
2018-12-23T13:11:08.793Z,1010.17
2018-12-23T13:16:05.543Z,1010.16
2018-12-23T13:21:01.047Z,1010.05
2018-12-23T13:25:56.827Z,1009.86
2018-12-23T13:30:52.539Z,1009.88
2018-12-23T13:35:48.272Z,1009.78
2018-12-23T13:40:43.708Z,1009.58
2018-12-23T13:45:39.609Z,1009.68
2018-12-23T13:50:35.975Z,1009.68
2018-12-23T13:55:32.306Z,1009.69
2018-12-23T14:00:29.176Z,1009.44
2018-12-23T14:05:25.297Z,1009.40
2018-12-23T14:10:22.040Z,1009.48
2018-12-23T14:15:18.715Z,1009.42
2018-12-23T14:20:15.152Z,1009.12
2018-12-23T14:25:11.328Z,1009.13
2018-12-23T14:30:07.730Z,1008.89
2018-12-23T14:35:04.290Z,1008.93
2018-12-23T14:39:59.813Z,1008.91
2018-12-23T14:44:55.430Z,1008.84
2018-12-23T14:49:51.108Z,1008.77
2018-12-23T14:54:47.682Z,1008.59
2018-12-23T14:59:43.102Z,1008.58
2018-12-23T15:04:39.189Z,1008.55
2018-12-23T15:09:35.302Z,1008.58
2018-12-23T15:14:31.629Z,1008.53
2018-12-23T15:19:28.030Z,1008.55
2018-12-23T15:24:24.475Z,1008.46
2018-12-23T15:29:20.137Z,1008.38
2018-12-23T15:34:16.808Z,1008.35
2018-12-23T15:39:12.243Z,1008.28
2018-12-23T15:44:07.735Z,1007.99
2018-12-23T15:49:03.317Z,1007.91
2018-12-23T15:53:59.024Z,1007.87
2018-12-23T15:58:56.174Z,1007.83
2018-12-23T16:03:51.613Z,1007.74
2018-12-23T16:08:47.534Z,1007.67
2018-12-23T16:13:43.366Z,1007.65
2018-12-23T16:18:40.188Z,1007.51
2018-12-23T16:23:35.921Z,1007.59
2018-12-23T16:28:32.560Z,1007.58
2018-12-23T16:33:29.064Z,1007.58
2018-12-23T16:38:24.634Z,1007.63
2018-12-23T16:43:21.273Z,1007.70
2018-12-23T16:48:17.292Z,1007.36
2018-12-23T16:53:13.002Z,1007.24
2018-12-23T16:58:08.669Z,1007.31
2018-12-23T17:03:04.636Z,1007.29
2018-12-23T17:08:00.968Z,1007.06
2018-12-23T17:12:56.682Z,1007.01
2018-12-23T17:17:52.154Z,1006.90
2018-12-23T17:22:48.060Z,1006.80
2018-12-23T17:27:43.922Z,1006.86
2018-12-23T17:32:39.673Z,1007.08
2018-12-23T17:37:36.413Z,1007.03
2018-12-23T17:42:31.881Z,1007.18
2018-12-23T17:47:28.455Z,1007.24
2018-12-23T17:52:23.905Z,1007.21
2018-12-23T17:57:21.430Z,1007.33
2018-12-23T18:02:18.276Z,1007.35
2018-12-23T18:07:13.689Z,1007.22
2018-12-23T18:12:09.304Z,1007.25
2018-12-23T18:17:05.003Z,1007.11
2018-12-23T18:22:00.678Z,1006.98
2018-12-23T18:26:56.402Z,1007.10
2018-12-23T18:31:53.195Z,1007.06
2018-12-23T18:36:48.774Z,1007.06
2018-12-23T18:41:44.519Z,1007.30
2018-12-23T18:46:39.985Z,1007.31
2018-12-23T18:51:35.701Z,1007.07
2018-12-23T18:56:31.578Z,1007.15
2018-12-23T19:01:27.102Z,1007.11
2018-12-23T19:06:23.879Z,1007.01
2018-12-23T19:11:20.222Z,1007.58
2018-12-23T19:16:15.760Z,1007.38
2018-12-23T19:21:11.601Z,1007.22
2018-12-23T19:26:08.027Z,1007.33
2018-12-23T19:31:04.816Z,1007.23
2018-12-23T19:36:00.286Z,1007.30
2018-12-23T19:40:56.026Z,1007.31
2018-12-23T19:45:51.866Z,1007.19
2018-12-23T19:50:47.584Z,1007.27
2018-12-23T19:55:43.069Z,1007.07
2018-12-23T20:00:39.076Z,1007.08
2018-12-23T20:05:34.774Z,1007.15
2018-12-23T20:10:30.400Z,1007.40
2018-12-23T20:15:26.191Z,1007.35
2018-12-23T20:20:22.602Z,1007.39
2018-12-23T20:25:18.101Z,1007.41
2018-12-23T20:30:13.997Z,1007.48
2018-12-23T20:35:09.646Z,1007.36
2018-12-23T20:40:05.608Z,1007.39
2018-12-23T20:45:01.089Z,1007.55
2018-12-23T20:49:57.208Z,1007.54
2018-12-23T20:54:53.030Z,1007.73
2018-12-23T20:59:48.886Z,1007.69
2018-12-23T21:04:45.662Z,1007.65
2018-12-23T21:09:41.684Z,1007.91
2018-12-23T21:14:37.246Z,1007.84
2018-12-23T21:19:32.793Z,1007.97
2018-12-23T21:24:28.463Z,1008.04
2018-12-23T21:29:24.475Z,1008.04
2018-12-23T21:34:20.343Z,1008.13
2018-12-23T21:39:16.962Z,1008.23
2018-12-23T21:44:13.356Z,1008.23
2018-12-23T21:49:08.911Z,1008.25
2018-12-23T21:54:04.503Z,1008.46
2018-12-23T21:59:01.176Z,1008.48
2018-12-23T22:03:56.823Z,1008.71
2018-12-23T22:08:52.158Z,1008.73
2018-12-23T22:13:48.135Z,1008.85
2018-12-23T22:18:43.847Z,1008.93
2018-12-23T22:23:39.501Z,1009.02
2018-12-23T22:28:35.199Z,1009.15
2018-12-23T22:33:30.939Z,1009.18
2018-12-23T22:38:26.578Z,1009.12
2018-12-23T22:43:22.224Z,1009.09
2018-12-23T22:48:18.849Z,1009.25
2018-12-23T22:53:14.395Z,1009.32
2018-12-23T22:58:10.253Z,1009.34
2018-12-23T23:03:09.199Z,1009.46
2018-12-23T23:08:04.255Z,1009.48
2018-12-23T23:12:59.684Z,1009.46
2018-12-23T23:17:56.374Z,1009.52
2018-12-23T23:22:52.899Z,1009.56
2018-12-23T23:27:48.130Z,1009.64
2018-12-23T23:32:43.877Z,1009.74
2018-12-23T23:37:39.488Z,1009.83
2018-12-23T23:42:35.088Z,1009.86
2018-12-23T23:47:31.564Z,1009.86
2018-12-23T23:52:27.559Z,1009.91
2018-12-23T23:57:23.267Z,1009.95
